Time;durP1;ratioP1;P1;durP2;ratioP2;P2;SDS_P1;SDS_P2;PMS_P1;PMS_P2;Temp;Humidity;BMP_temperature;BMP_pressure;BME280_temperature;BME280_humidity;BME280_pressure;Samples;Min_cycle;Max_cycle;Signal;HPM_P1;HPM_P2
2021/03/31 00:01:12;;;;;;;11.77;7.73;;;12.90;99.90;;;;;;5136342;27;20728;-65
2021/03/31 00:03:38;;;;;;;9.27;7.00;;;12.90;99.90;;;;;;5118721;27;20202;-65
2021/03/31 00:06:03;;;;;;;7.70;6.00;;;13.00;99.90;;;;;;5118880;27;20183;-68
2021/03/31 00:08:31;;;;;;;9.43;6.50;;;13.10;99.90;;;;;;5137112;27;20182;-69
2021/03/31 00:11:00;;;;;;;7.03;5.30;;;13.10;99.90;;;;;;5137285;27;20215;-68
2021/03/31 00:13:26;;;;;;;10.80;5.53;;;13.20;99.90;;;;;;5118570;27;20484;-67
2021/03/31 00:15:53;;;;;;;8.13;5.90;;;13.10;99.90;;;;;;5137272;27;20419;-65
2021/03/31 00:18:21;;;;;;;11.87;6.50;;;13.10;99.90;;;;;;5136898;27;20420;-65
2021/03/31 00:20:47;;;;;;;8.93;5.80;;;13.10;99.90;;;;;;5137024;27;20416;-65
2021/03/31 00:23:15;;;;;;;8.17;5.73;;;13.10;99.90;;;;;;5118482;27;20978;-65
2021/03/31 00:25:41;;;;;;;9.53;6.63;;;13.10;99.90;;;;;;5118483;27;20464;-68
2021/03/31 00:28:09;;;;;;;6.67;5.43;;;13.00;99.90;;;;;;5136789;27;20445;-68
2021/03/31 00:30:35;;;;;;;9.53;6.23;;;13.10;99.90;;;;;;5136729;27;20829;-65
2021/03/31 00:33:01;;;;;;;10.60;6.53;;;13.10;99.90;;;;;;5136642;27;20429;-66
2021/03/31 00:35:26;;;;;;;9.67;7.13;;;13.00;99.90;;;;;;5136691;27;20182;-65
2021/03/31 00:37:52;;;;;;;11.60;5.17;;;13.10;99.90;;;;;;5136537;27;20416;-65
2021/03/31 00:40:20;;;;;;;9.73;6.87;;;13.10;99.90;;;;;;5136639;27;20179;-65
2021/03/31 00:42:46;;;;;;;11.63;6.90;;;13.10;99.90;;;;;;5117935;27;20295;-66
2021/03/31 00:45:14;;;;;;;8.53;5.50;;;13.10;99.90;;;;;;5136524;27;20769;-65
2021/03/31 00:47:40;;;;;;;7.57;5.70;;;13.10;99.90;;;;;;5135525;27;20483;-65
2021/03/31 00:50:09;;;;;;;12.13;6.90;;;13.10;99.90;;;;;;5136352;27;20820;-65
2021/03/31 00:52:35;;;;;;;8.70;5.63;;;13.20;99.90;;;;;;5136328;27;20395;-65
2021/03/31 00:55:01;;;;;;;5.83;4.13;;;13.10;99.90;;;;;;5136145;27;20804;-68
2021/03/31 00:57:26;;;;;;;8.83;5.70;;;13.10;99.90;;;;;;5136166;27;20395;-68
2021/03/31 00:59:52;;;;;;;8.50;5.30;;;13.00;99.90;;;;;;5136006;27;20388;-65
2021/03/31 01:02:18;;;;;;;9.00;5.83;;;13.10;99.90;;;;;;5136188;27;20283;-68
2021/03/31 01:04:43;;;;;;;7.27;4.93;;;13.20;99.90;;;;;;5135995;27;20198;-68
2021/03/31 01:07:09;;;;;;;8.37;4.63;;;13.20;99.90;;;;;;5136524;27;20186;-68
2021/03/31 01:09:35;;;;;;;12.13;5.20;;;13.20;99.90;;;;;;5135786;27;20223;-65
2021/03/31 01:12:10;;;;;;;8.53;5.50;;;13.20;99.90;;;;;;5136403;27;20172;-65
2021/03/31 01:14:49;;;;;;;8.13;5.10;;;13.20;99.90;;;;;;5135744;27;20491;-65
2021/03/31 01:17:26;;;;;;;7.70;5.90;;;13.20;99.90;;;;;;5135851;27;20759;-67
2021/03/31 01:19:54;;;;;;;9.33;5.97;;;13.20;99.90;;;;;;5135669;27;20880;-69
2021/03/31 01:22:46;;;;;;;11.03;6.30;;;13.20;99.90;;;;;;5135635;27;20423;-68
2021/03/31 01:25:29;;;;;;;8.30;5.73;;;13.20;99.90;;;;;;5135630;27;20427;-65
2021/03/31 01:28:03;;;;;;;8.40;5.37;;;13.10;99.90;;;;;;5135550;27;20788;-69
2021/03/31 01:30:56;;;;;;;7.90;5.37;;;13.10;99.90;;;;;;5116947;27;20481;-66
2021/03/31 01:33:57;;;;;;;5.27;4.77;;;13.10;99.90;;;;;;5135431;27;20423;-66
2021/03/31 01:36:23;;;;;;;8.23;6.27;;;13.10;99.90;;;;;;5135550;27;20463;-69
2021/03/31 01:38:55;;;;;;;8.53;6.50;;;13.10;99.90;;;;;;5135303;27;20469;-65
2021/03/31 01:41:21;;;;;;;7.37;5.00;;;13.20;99.90;;;;;;5135770;27;20419;-65
2021/03/31 01:43:55;;;;;;;8.00;4.77;;;13.20;99.90;;;;;;5116829;27;20980;-69
2021/03/31 01:46:28;;;;;;;8.53;4.90;;;13.20;99.90;;;;;;5135039;27;20811;-65
2021/03/31 01:48:57;;;;;;;6.30;4.80;;;13.20;99.90;;;;;;5134464;27;20971;-69
2021/03/31 01:51:23;;;;;;;6.43;5.20;;;13.20;99.90;;;;;;5135624;27;20460;-68
2021/03/31 01:53:50;;;;;;;6.87;5.00;;;13.20;99.90;;;;;;5135028;27;20420;-66
2021/03/31 01:56:17;;;;;;;9.47;5.80;;;13.20;99.90;;;;;;5135461;27;20179;-66
2021/03/31 01:58:44;;;;;;;8.80;6.20;;;13.10;99.90;;;;;;5134944;27;20423;-68
2021/03/31 02:01:14;;;;;;;11.70;6.37;;;13.10;99.90;;;;;;5135013;27;20430;-68
2021/03/31 02:03:40;;;;;;;9.20;5.50;;;13.00;99.90;;;;;;5134887;27;20415;-65
2021/03/31 02:06:06;;;;;;;9.70;6.37;;;13.00;99.90;;;;;;5135181;27;20502;-68
2021/03/31 02:08:32;;;;;;;7.53;4.90;;;12.90;99.90;;;;;;5134885;27;20480;-68
2021/03/31 02:10:58;;;;;;;4.87;4.37;;;12.90;99.90;;;;;;5135149;27;20577;-65
2021/03/31 02:13:25;;;;;;;8.77;5.47;;;13.00;99.90;;;;;;5134805;27;20486;-65
2021/03/31 02:15:56;;;;;;;7.73;5.90;;;13.00;99.90;;;;;;5135018;27;20419;-65
2021/03/31 02:18:24;;;;;;;8.03;6.20;;;13.00;99.90;;;;;;5134909;27;20411;-65
2021/03/31 02:20:53;;;;;;;7.60;5.50;;;12.90;99.90;;;;;;5134862;27;20761;-66
2021/03/31 02:23:20;;;;;;;9.10;5.07;;;13.00;99.90;;;;;;5116193;28;20528;-68
2021/03/31 02:25:49;;;;;;;5.47;4.87;;;13.10;99.90;;;;;;5134567;27;20415;-65
2021/03/31 02:28:15;;;;;;;7.07;5.07;;;13.10;99.90;;;;;;5134643;28;20431;-65
2021/03/31 02:30:41;;;;;;;6.97;4.63;;;13.10;99.90;;;;;;5116243;28;20510;-68
2021/03/31 02:33:10;;;;;;;7.97;5.27;;;13.00;99.90;;;;;;5116219;28;20889;-69
2021/03/31 02:35:37;;;;;;;7.40;4.80;;;13.00;99.90;;;;;;5134800;28;20467;-65
2021/03/31 02:38:10;;;;;;;7.93;6.57;;;13.00;99.90;;;;;;5116052;28;20431;-65
2021/03/31 02:40:37;;;;;;;10.77;7.00;;;13.00;99.90;;;;;;5116191;28;20954;-65
2021/03/31 02:43:06;;;;;;;6.70;4.73;;;12.90;99.90;;;;;;5116025;28;20795;-65
2021/03/31 02:45:34;;;;;;;6.93;5.13;;;12.90;99.90;;;;;;5134656;28;20437;-65
2021/03/31 02:48:01;;;;;;;9.37;5.90;;;12.80;99.90;;;;;;5134456;28;21068;-65
2021/03/31 02:50:30;;;;;;;6.70;5.40;;;12.90;99.90;;;;;;5134472;28;20471;-68
2021/03/31 02:52:57;;;;;;;10.33;6.87;;;12.90;99.90;;;;;;5134384;28;20446;-66
2021/03/31 02:55:23;;;;;;;9.10;5.80;;;13.00;99.90;;;;;;5134565;28;20468;-65
2021/03/31 02:57:50;;;;;;;8.67;6.50;;;13.00;99.90;;;;;;5134256;28;20480;-65
2021/03/31 03:00:17;;;;;;;8.27;6.10;;;13.00;99.90;;;;;;5134532;28;20420;-65
2021/03/31 03:02:45;;;;;;;7.30;4.40;;;13.00;99.90;;;;;;5134398;28;20788;-68
2021/03/31 03:05:13;;;;;;;7.80;5.20;;;12.80;99.90;;;;;;5134390;28;20414;-65
2021/03/31 03:07:39;;;;;;;10.43;5.80;;;12.90;99.90;;;;;;5134257;28;20781;-65
2021/03/31 03:10:07;;;;;;;8.43;5.50;;;12.90;99.90;;;;;;5134682;27;20507;-68
2021/03/31 03:12:38;;;;;;;8.27;6.60;;;12.90;99.90;;;;;;5138220;27;20399;-65
2021/03/31 03:15:05;;;;;;;7.67;5.23;;;12.90;99.90;;;;;;5138225;27;20473;-68
2021/03/31 03:17:30;;;;;;;7.03;5.70;;;12.90;99.90;;;;;;5119671;27;20403;-69
2021/03/31 03:19:57;;;;;;;7.30;5.97;;;13.00;99.90;;;;;;5119707;27;20485;-65
2021/03/31 03:22:23;;;;;;;7.13;5.53;;;13.00;99.90;;;;;;5138122;27;20636;-65
2021/03/31 03:24:50;;;;;;;9.03;6.10;;;13.00;99.90;;;;;;5137784;27;20460;-70
2021/03/31 03:27:18;;;;;;;5.90;5.00;;;12.90;99.90;;;;;;5137927;27;20482;-68
2021/03/31 03:29:46;;;;;;;6.13;4.60;;;12.90;99.90;;;;;;5137793;27;20951;-66
2021/03/31 03:32:13;;;;;;;9.23;5.80;;;12.90;99.90;;;;;;5137809;27;20411;-69
2021/03/31 03:34:39;;;;;;;8.23;5.70;;;12.90;99.90;;;;;;5137815;27;20936;-66
2021/03/31 03:37:05;;;;;;;8.87;5.40;;;12.90;99.90;;;;;;5138383;27;20455;-68
2021/03/31 03:39:31;;;;;;;6.53;4.90;;;12.80;99.90;;;;;;5137690;27;20426;-69
2021/03/31 03:41:57;;;;;;;5.63;4.47;;;12.90;99.90;;;;;;5138196;27;20434;-65
2021/03/31 03:44:23;;;;;;;8.93;4.87;;;12.90;99.90;;;;;;5137590;27;20449;-68
2021/03/31 03:46:52;;;;;;;7.17;4.80;;;12.80;99.90;;;;;;5137714;27;20223;-69
2021/03/31 03:49:18;;;;;;;7.60;4.90;;;12.80;99.90;;;;;;5119138;27;20238;-68
2021/03/31 03:51:45;;;;;;;7.47;5.10;;;12.90;99.90;;;;;;5119212;27;20461;-66
2021/03/31 03:54:11;;;;;;;5.33;4.83;;;12.80;99.90;;;;;;5137513;27;20236;-65
2021/03/31 03:56:37;;;;;;;6.87;5.20;;;12.80;99.90;;;;;;5137793;27;20423;-65
2021/03/31 03:59:19;;;;;;;8.27;5.07;;;12.80;99.90;;;;;;5137330;27;20419;-68
2021/03/31 04:01:46;;;;;;;8.13;5.53;;;12.80;99.90;;;;;;5137861;27;20435;-68
2021/03/31 04:04:11;;;;;;;7.57;5.20;;;12.70;99.90;;;;;;5137294;27;20947;-68
2021/03/31 04:06:37;;;;;;;6.83;4.67;;;12.80;99.90;;;;;;5137683;27;20421;-65
2021/03/31 04:09:04;;;;;;;12.63;6.50;;;12.70;99.90;;;;;;5118822;27;20191;-65
2021/03/31 04:11:30;;;;;;;12.97;6.20;;;12.70;99.90;;;;;;5137510;27;20182;-70
2021/03/31 04:13:58;;;;;;;10.10;6.10;;;12.70;99.90;;;;;;5118601;27;20538;-65
2021/03/31 04:16:24;;;;;;;9.20;5.97;;;12.60;99.90;;;;;;5137009;27;20508;-65
2021/03/31 04:18:52;;;;;;;8.83;5.43;;;12.60;99.90;;;;;;5136905;27;20448;-65
2021/03/31 04:21:18;;;;;;;11.87;6.53;;;12.60;99.90;;;;;;5136432;27;20427;-70
2021/03/31 04:23:44;;;;;;;9.67;6.77;;;12.70;99.90;;;;;;5136090;27;20518;-65
2021/03/31 04:26:10;;;;;;;10.53;6.60;;;12.70;99.90;;;;;;5118484;27;20446;-69
2021/03/31 04:28:36;;;;;;;10.27;6.70;;;12.70;99.90;;;;;;5136349;27;20263;-65
2021/03/31 04:31:05;;;;;;;18.57;11.23;;;12.70;99.90;;;;;;5112443;28;20215;-69
2021/03/31 04:33:32;;;;;;;9.67;6.37;;;13.70;99.90;;;;;;5116113;28;20428;-67
2021/03/31 04:35:57;;;;;;;7.20;5.97;;;14.60;99.90;;;;;;5116280;28;20491;-69
2021/03/31 04:38:23;;;;;;;9.00;5.10;;;15.10;99.90;;;;;;5116102;28;20470;-65
2021/03/31 04:40:55;;;;;;;10.03;5.40;;;15.40;99.90;;;;;;5116132;28;20508;-68
2021/03/31 04:43:22;;;;;;;8.00;5.10;;;15.70;99.90;;;;;;5115989;28;20203;-68
2021/03/31 04:45:48;;;;;;;9.07;6.20;;;15.90;99.90;;;;;;5115874;28;20400;-70
2021/03/31 04:48:13;;;;;;;8.40;5.40;;;16.00;99.90;;;;;;5115792;28;21054;-65
2021/03/31 04:50:40;;;;;;;5.97;4.50;;;16.10;99.90;;;;;;5115880;28;20228;-65
2021/03/31 04:53:05;;;;;;;5.83;4.57;;;16.20;99.90;;;;;;5115735;28;20188;-67
2021/03/31 04:55:31;;;;;;;7.73;4.37;;;16.20;99.90;;;;;;5115774;28;20424;-65
2021/03/31 04:57:57;;;;;;;6.17;4.47;;;16.30;99.90;;;;;;5115123;27;20191;-65
2021/03/31 05:00:22;;;;;;;7.20;4.50;;;16.30;99.90;;;;;;5125790;27;20588;-68
2021/03/31 05:02:48;;;;;;;10.60;6.70;;;16.20;99.90;;;;;;5116276;27;20210;-65
2021/03/31 05:05:14;;;;;;;8.10;5.10;;;15.10;99.90;;;;;;5123365;27;20179;-68
2021/03/31 05:07:40;;;;;;;5.87;5.27;;;13.90;99.90;;;;;;5124920;27;20175;-68
2021/03/31 05:10:06;;;;;;;7.40;5.83;;;13.40;99.90;;;;;;5123741;27;20469;-68
2021/03/31 05:12:31;;;;;;;8.37;5.70;;;13.30;99.90;;;;;;5124717;27;20217;-67
2021/03/31 05:14:57;;;;;;;9.37;6.70;;;13.30;99.90;;;;;;5115528;28;20893;-69
2021/03/31 05:17:23;;;;;;;9.83;6.30;;;13.20;99.90;;;;;;5115269;28;20183;-66
2021/03/31 05:19:48;;;;;;;9.00;5.90;;;13.10;99.90;;;;;;5114990;28;20191;-68
2021/03/31 05:22:14;;;;;;;7.83;5.17;;;13.20;99.90;;;;;;5115235;28;20408;-68
2021/03/31 05:24:40;;;;;;;5.37;4.87;;;13.10;99.90;;;;;;5104629;27;20203;-68
2021/03/31 05:27:06;;;;;;;6.03;3.90;;;13.20;99.90;;;;;;5119793;27;20187;-69
2021/03/31 05:29:32;;;;;;;10.50;5.90;;;13.20;99.90;;;;;;5130347;27;20688;-68
2021/03/31 05:31:58;;;;;;;6.63;4.37;;;13.30;99.90;;;;;;5120567;27;20431;-68
2021/03/31 05:34:24;;;;;;;7.57;5.77;;;13.40;99.90;;;;;;5115879;27;20656;-65
2021/03/31 05:36:50;;;;;;;7.00;4.63;;;13.40;99.90;;;;;;5118568;27;20436;-65
2021/03/31 05:39:15;;;;;;;8.57;5.03;;;13.40;99.90;;;;;;5113016;27;20204;-69
2021/03/31 05:41:41;;;;;;;8.37;5.80;;;13.40;99.90;;;;;;5122834;27;20175;-65
2021/03/31 05:44:08;;;;;;;8.63;5.47;;;13.30;99.90;;;;;;5122207;27;20561;-68
2021/03/31 05:46:36;;;;;;;5.30;4.80;;;13.30;99.90;;;;;;5113227;27;20239;-65
2021/03/31 05:49:02;;;;;;;7.20;4.90;;;13.20;99.90;;;;;;5120756;27;20445;-66
2021/03/31 05:51:27;;;;;;;7.13;5.30;;;13.30;99.90;;;;;;5126368;27;21286;-65
2021/03/31 05:53:53;;;;;;;6.57;4.90;;;13.20;99.90;;;;;;5128192;27;20459;-65
2021/03/31 05:56:20;;;;;;;10.87;5.83;;;13.30;99.90;;;;;;5114706;27;20187;-66
2021/03/31 05:58:46;;;;;;;8.77;5.90;;;13.40;99.90;;;;;;5120215;27;20208;-65
2021/03/31 06:01:11;;;;;;;10.97;5.70;;;13.30;99.90;;;;;;5131249;27;20460;-69
2021/03/31 06:03:37;;;;;;;6.73;4.87;;;13.30;99.90;;;;;;5117711;27;20208;-68
2021/03/31 06:06:03;;;;;;;8.60;6.13;;;13.40;99.90;;;;;;5129130;27;20230;-65
2021/03/31 06:08:29;;;;;;;5.33;4.77;;;13.50;99.90;;;;;;5119417;27;20204;-65
2021/03/31 06:11:02;;;;;;;6.90;5.43;;;13.50;99.90;;;;;;5113474;28;20997;-65
2021/03/31 06:13:48;;;;;;;6.13;4.87;;;13.60;99.90;;;;;;5114135;28;20204;-70
2021/03/31 06:16:32;;;;;;;9.27;5.07;;;13.60;99.90;;;;;;5127047;27;20426;-65
2021/03/31 06:19:17;;;;;;;8.97;5.70;;;13.70;99.90;;;;;;5131370;27;20423;-69
2021/03/31 06:21:54;;;;;;;8.50;5.77;;;13.70;99.90;;;;;;5095340;28;20420;-68
2021/03/31 06:24:27;;;;;;;7.90;5.73;;;13.70;99.90;;;;;;5101625;27;20446;-68
2021/03/31 06:26:53;;;;;;;9.13;6.00;;;13.80;99.90;;;;;;5133098;28;20415;-65
2021/03/31 06:29:20;;;;;;;10.20;7.00;;;13.80;99.90;;;;;;5114027;28;20459;-65
2021/03/31 06:31:48;;;;;;;8.03;5.63;;;13.90;99.90;;;;;;5113763;28;20180;-66
2021/03/31 06:34:18;;;;;;;8.47;6.80;;;13.80;99.90;;;;;;5118734;28;20436;-65
2021/03/31 06:36:48;;;;;;;10.87;6.40;;;13.90;99.90;;;;;;5123585;28;20428;-65
2021/03/31 06:39:32;;;;;;;8.63;5.43;;;14.00;99.90;;;;;;5124118;28;20481;-68
2021/03/31 06:42:02;;;;;;;7.40;5.93;;;14.10;99.90;;;;;;5124384;28;20423;-65
2021/03/31 06:45:01;;;;;;;9.93;6.30;;;14.10;99.90;;;;;;5120470;27;20535;-70
2021/03/31 06:49:51;;;;;;;8.93;6.90;;;14.30;99.90;;;;;;5123130;27;20810;-65
2021/03/31 06:52:17;;;;;;;11.70;7.47;;;14.30;99.90;;;;;;5118210;27;20779;-65
2021/03/31 06:55:04;;;;;;;7.10;5.93;;;14.40;99.90;;;;;;5133318;27;20496;-66
2021/03/31 06:57:35;;;;;;;7.87;5.57;;;14.40;99.90;;;;;;5117539;28;20411;-69
2021/03/31 07:00:13;;;;;;;8.80;6.80;;;14.50;99.90;;;;;;5113096;27;20434;-65
2021/03/31 07:02:41;;;;;;;8.07;5.40;;;14.70;99.90;;;;;;5131493;27;20419;-65
2021/03/31 07:05:08;;;;;;;8.10;6.00;;;14.80;99.90;;;;;;5132262;27;20414;-68
2021/03/31 07:07:38;;;;;;;9.57;7.07;;;14.90;99.90;;;;;;5134024;27;20493;-65
2021/03/31 07:10:07;;;;;;;9.57;5.53;;;15.10;99.90;;;;;;5127565;27;20512;-69
2021/03/31 07:12:40;;;;;;;11.60;7.63;;;15.00;99.90;;;;;;5124044;27;20415;-64
2021/03/31 07:15:06;;;;;;;9.37;6.50;;;15.20;99.90;;;;;;5128531;27;20818;-67
2021/03/31 07:17:33;;;;;;;13.73;7.17;;;15.40;99.90;;;;;;5121419;27;20810;-64
2021/03/31 07:20:00;;;;;;;14.53;6.30;;;15.50;99.90;;;;;;5124057;27;20411;-68
2021/03/31 07:22:26;;;;;;;9.73;5.93;;;15.70;99.90;;;;;;5127281;27;20905;-64
2021/03/31 07:24:55;;;;;;;9.87;7.00;;;15.80;99.90;;;;;;5127951;27;20418;-68
2021/03/31 07:27:24;;;;;;;7.60;6.30;;;16.10;99.90;;;;;;5130502;27;20497;-64
2021/03/31 07:30:10;;;;;;;10.20;6.07;;;16.20;99.90;;;;;;5119165;27;20874;-68
2021/03/31 07:32:51;;;;;;;17.03;9.13;;;16.40;99.90;;;;;;5131440;27;20972;-68
2021/03/31 07:35:19;;;;;;;10.90;7.40;;;16.50;99.90;;;;;;5116420;28;20420;-68
2021/03/31 07:37:46;;;;;;;8.00;6.00;;;16.60;99.90;;;;;;5124329;27;20427;-65
2021/03/31 07:40:13;;;;;;;11.33;6.90;;;16.70;99.90;;;;;;5097093;28;20419;-64
2021/03/31 07:42:45;;;;;;;7.20;5.17;;;17.10;99.90;;;;;;5116280;27;20944;-68
2021/03/31 07:45:13;;;;;;;7.83;5.60;;;18.30;99.90;;;;;;5128284;27;20915;-71
2021/03/31 07:47:40;;;;;;;6.53;5.83;;;18.80;99.90;;;;;;5095026;28;20468;-68
2021/03/31 07:50:07;;;;;;;6.27;5.23;;;19.10;99.80;;;;;;5095323;27;20479;-69
2021/03/31 07:52:54;;;;;;;8.67;5.67;;;19.40;98.60;;;;;;5116673;27;20915;-64
2021/03/31 07:55:44;;;;;;;7.17;5.00;;;19.60;97.30;;;;;;5116718;27;20441;-68
2021/03/31 07:58:14;;;;;;;8.30;5.63;;;19.80;96.10;;;;;;5123207;27;20444;-65
2021/03/31 08:00:46;;;;;;;7.90;5.93;;;19.80;95.20;;;;;;5118822;27;20435;-69
2021/03/31 08:03:14;;;;;;;9.20;6.17;;;19.90;94.70;;;;;;5119078;27;20448;-65
2021/03/31 08:06:07;;;;;;;7.83;5.90;;;20.10;94.20;;;;;;5123081;27;20951;-66
2021/03/31 08:08:38;;;;;;;9.03;7.33;;;20.10;93.20;;;;;;5117976;27;20457;-66
2021/03/31 08:11:04;;;;;;;9.43;6.23;;;18.70;92.80;;;;;;5121086;27;20486;-68
2021/03/31 08:13:37;;;;;;;10.43;5.30;;;18.50;95.10;;;;;;5098496;27;20526;-67
2021/03/31 08:16:26;;;;;;;7.20;5.77;;;18.40;95.00;;;;;;5127216;27;20440;-69
2021/03/31 08:19:00;;;;;;;6.30;5.67;;;18.60;94.00;;;;;;5118747;27;20457;-68
2021/03/31 08:21:27;;;;;;;7.07;5.77;;;18.50;92.60;;;;;;5122721;27;20429;-66
2021/03/31 08:23:56;;;;;;;7.40;5.80;;;18.60;92.80;;;;;;5115607;28;20445;-66
2021/03/31 08:26:40;;;;;;;7.27;5.00;;;18.90;93.60;;;;;;5125781;27;20425;-69
2021/03/31 08:29:18;;;;;;;5.20;4.70;;;18.80;92.00;;;;;;5124378;27;20453;-69
2021/03/31 08:31:46;;;;;;;5.93;5.20;;;18.90;93.00;;;;;;5119269;27;20472;-67
2021/03/31 08:34:14;;;;;;;7.60;5.13;;;19.00;92.00;;;;;;5119501;27;20481;-66
2021/03/31 08:36:40;;;;;;;6.83;5.27;;;19.20;92.30;;;;;;5104786;27;20446;-68
2021/03/31 08:39:08;;;;;;;7.63;5.63;;;19.40;91.00;;;;;;5120064;27;20438;-67
2021/03/31 08:41:38;;;;;;;8.40;5.23;;;19.70;91.40;;;;;;5120623;27;20438;-68
2021/03/31 08:44:17;;;;;;;5.47;4.90;;;20.00;90.30;;;;;;5106872;28;20505;-69
2021/03/31 08:46:43;;;;;;;4.87;4.37;;;20.20;90.50;;;;;;5120338;27;20508;-69
2021/03/31 08:49:24;;;;;;;5.20;4.70;;;20.10;90.40;;;;;;5118065;27;20439;-67
2021/03/31 08:51:53;;;;;;;6.07;4.57;;;20.40;90.10;;;;;;5116030;27;20198;-70
2021/03/31 08:54:44;;;;;;;5.80;4.70;;;20.40;89.80;;;;;;5117598;27;20444;-67
2021/03/31 08:57:27;;;;;;;4.87;4.27;;;21.10;86.30;;;;;;5121432;27;20499;-69
2021/03/31 08:59:57;;;;;;;5.70;4.67;;;20.60;89.50;;;;;;5118078;27;20408;-66
2021/03/31 09:02:41;;;;;;;6.83;5.60;;;20.60;90.00;;;;;;5115421;27;20424;-69
2021/03/31 09:05:09;;;;;;;5.53;4.87;;;21.30;88.30;;;;;;5117912;27;20810;-68
2021/03/31 09:07:35;;;;;;;6.60;4.37;;;21.00;88.30;;;;;;5103002;28;20416;-67
2021/03/31 09:10:02;;;;;;;5.57;4.80;;;20.50;88.60;;;;;;5104839;27;20478;-70
2021/03/31 09:12:30;;;;;;;6.20;4.73;;;20.60;88.70;;;;;;5102819;28;20497;-69
2021/03/31 09:14:57;;;;;;;10.33;5.30;;;21.40;86.20;;;;;;5099077;27;20784;-69
2021/03/31 09:17:28;;;;;;;6.23;4.27;;;20.90;85.70;;;;;;5106141;27;20440;-70
2021/03/31 09:19:59;;;;;;;7.73;4.80;;;20.60;86.90;;;;;;5119123;27;20430;-68
2021/03/31 09:22:28;;;;;;;6.37;4.10;;;21.30;86.80;;;;;;5122724;27;20403;-69
2021/03/31 09:25:05;;;;;;;4.10;3.70;;;21.70;85.50;;;;;;5105434;27;20408;-69
2021/03/31 09:27:32;;;;;;;5.03;4.27;;;21.80;84.60;;;;;;5105165;28;20436;-67
2021/03/31 09:30:02;;;;;;;6.33;5.30;;;21.30;84.90;;;;;;5109553;27;20462;-68
2021/03/31 09:34:54;;;;;;;5.07;3.67;;;21.60;87.20;;;;;;5116920;27;20980;-69
2021/03/31 09:37:19;;;;;;;5.20;4.23;;;22.30;86.10;;;;;;5114550;27;20252;-69
2021/03/31 09:39:46;;;;;;;9.53;4.17;;;21.70;87.30;;;;;;5100909;27;20740;-67
2021/03/31 09:42:28;;;;;;;6.00;5.07;;;21.80;88.10;;;;;;5116377;27;20184;-67
2021/03/31 09:44:55;;;;;;;5.43;4.20;;;21.70;87.20;;;;;;5099232;28;21000;-68
2021/03/31 09:47:23;;;;;;;3.90;3.50;;;21.50;87.90;;;;;;5117332;27;20541;-69
2021/03/31 09:49:53;;;;;;;3.70;3.03;;;22.50;86.10;;;;;;5118335;27;20468;-68
2021/03/31 09:52:25;;;;;;;6.03;4.10;;;22.40;86.80;;;;;;5115974;27;20429;-69
2021/03/31 09:54:51;;;;;;;5.10;3.70;;;22.30;85.80;;;;;;5098018;28;20937;-70
2021/03/31 09:57:17;;;;;;;6.00;3.50;;;22.50;84.50;;;;;;5117380;27;20425;-65
2021/03/31 09:59:43;;;;;;;5.70;4.60;;;23.00;83.40;;;;;;5117297;27;21041;-65
2021/03/31 10:02:11;;;;;;;6.40;4.40;;;23.20;83.00;;;;;;5118443;27;20457;-66
2021/03/31 10:04:40;;;;;;;4.03;3.47;;;23.30;83.10;;;;;;5113771;27;21017;-70
2021/03/31 10:07:12;;;;;;;7.50;4.40;;;23.50;81.10;;;;;;5127390;27;20790;-68
2021/03/31 10:09:40;;;;;;;5.63;4.27;;;23.10;82.60;;;;;;5124555;27;20523;-65
2021/03/31 10:12:06;;;;;;;4.10;3.37;;;22.20;88.00;;;;;;5100911;27;20822;-68
2021/03/31 10:14:32;;;;;;;7.13;4.23;;;22.10;85.40;;;;;;5099868;27;20492;-65
2021/03/31 10:16:57;;;;;;;5.40;3.83;;;22.50;85.80;;;;;;5115024;27;20461;-64
2021/03/31 10:19:23;;;;;;;5.57;4.10;;;22.70;84.20;;;;;;5110998;28;20761;-64
2021/03/31 10:21:49;;;;;;;4.60;3.50;;;23.20;83.10;;;;;;5113111;27;20541;-65
2021/03/31 10:24:34;;;;;;;4.73;3.80;;;23.00;83.50;;;;;;5118829;27;20214;-69
2021/03/31 10:27:00;;;;;;;6.43;4.30;;;22.70;84.10;;;;;;5117623;27;20214;-65
2021/03/31 10:29:25;;;;;;;7.10;5.57;;;23.20;80.10;;;;;;5118257;27;20509;-69
2021/03/31 10:31:52;;;;;;;5.57;4.00;;;23.70;78.10;;;;;;5119783;28;20189;-65
2021/03/31 10:34:18;;;;;;;4.47;3.87;;;23.70;76.70;;;;;;5110728;28;20661;-65
2021/03/31 10:37:06;;;;;;;6.07;4.03;;;24.00;76.00;;;;;;5130405;28;20433;-65
2021/03/31 10:53:37;;;;;;;10.17;4.30;;;24.30;74.80;;;;;;5128483;28;20440;-68
2021/03/31 10:56:04;;;;;;;4.43;3.73;;;24.40;74.90;;;;;;5121760;28;20505;-64
2021/03/31 10:58:30;;;;;;;4.53;3.53;;;24.30;76.30;;;;;;5125053;28;20529;-65
2021/03/31 11:00:56;;;;;;;4.30;3.30;;;24.40;77.80;;;;;;5129532;28;20569;-68
2021/03/31 11:03:23;;;;;;;3.57;3.17;;;24.20;79.50;;;;;;5131214;28;21123;-66
2021/03/31 11:05:49;;;;;;;3.50;3.07;;;24.00;78.30;;;;;;5097504;28;20819;-69
2021/03/31 11:08:15;;;;;;;4.40;3.70;;;24.50;74.30;;;;;;5099083;28;20536;-69
2021/03/31 11:10:41;;;;;;;6.07;4.40;;;24.60;72.60;;;;;;5115427;28;20520;-69
2021/03/31 11:13:07;;;;;;;5.23;3.90;;;24.60;71.90;;;;;;5114676;28;20559;-66
2021/03/31 11:15:32;;;;;;;3.73;2.80;;;24.50;76.40;;;;;;5117938;28;20191;-65
2021/03/31 11:20:49;;;;;;;5.17;3.40;;;24.80;71.60;;;;;;5123919;28;20189;-65
2021/03/31 11:25:59;;;;;;;8.00;3.77;;;24.80;70.00;;;;;;5117485;28;20524;-67
2021/03/31 11:28:25;;;;;;;7.73;4.57;;;24.50;70.90;;;;;;5120062;28;20522;-65
2021/03/31 11:30:51;;;;;;;4.40;2.90;;;24.50;70.30;;;;;;5117737;28;21159;-67
2021/03/31 11:33:20;;;;;;;5.03;3.50;;;24.50;71.90;;;;;;5123300;27;20502;-64
2021/03/31 11:35:47;;;;;;;6.50;3.70;;;24.20;72.30;;;;;;5130471;27;20424;-64
2021/03/31 11:38:13;;;;;;;3.37;2.60;;;23.70;75.50;;;;;;5125669;27;20444;-65
2021/03/31 11:40:38;;;;;;;3.83;2.90;;;24.00;71.20;;;;;;5122783;27;20741;-67
2021/03/31 11:43:06;;;;;;;5.40;3.03;;;23.40;74.60;;;;;;5119885;27;20223;-66
2021/03/31 11:45:32;;;;;;;4.07;3.23;;;23.50;75.90;;;;;;5123592;27;20172;-68
2021/03/31 11:47:57;;;;;;;8.63;3.63;;;22.90;78.40;;;;;;5110906;27;20487;-68
2021/03/31 11:50:25;;;;;;;3.30;2.60;;;22.80;77.40;;;;;;5133618;27;20218;-67
2021/03/31 11:52:53;;;;;;;4.67;2.73;;;23.40;77.00;;;;;;5119095;27;20222;-67
2021/03/31 11:55:20;;;;;;;4.43;3.20;;;23.00;78.80;;;;;;5131113;27;20959;-66
2021/03/31 11:57:47;;;;;;;7.20;3.07;;;22.90;76.70;;;;;;5106772;27;20432;-69
2021/03/31 12:00:13;;;;;;;3.20;2.80;;;23.10;79.10;;;;;;5105169;28;20432;-67
2021/03/31 12:02:39;;;;;;;3.43;2.83;;;22.80;79.80;;;;;;5123894;27;20880;-64
2021/03/31 12:05:05;;;;;;;2.77;2.57;;;22.40;80.40;;;;;;5120162;27;20504;-63
2021/03/31 12:07:30;;;;;;;3.40;3.03;;;23.50;75.10;;;;;;5121571;27;20258;-65
2021/03/31 12:09:56;;;;;;;3.73;3.10;;;24.10;73.00;;;;;;5105575;27;20566;-64
2021/03/31 12:12:21;;;;;;;8.57;4.17;;;24.50;72.10;;;;;;5109354;27;20249;-65
2021/03/31 12:14:48;;;;;;;3.37;3.00;;;24.70;72.20;;;;;;5119466;27;20203;-67
2021/03/31 12:17:13;;;;;;;3.17;2.87;;;24.70;71.50;;;;;;5120804;27;20703;-65
2021/03/31 12:19:39;;;;;;;4.30;3.23;;;24.40;76.20;;;;;;5110297;27;20439;-65
2021/03/31 12:22:05;;;;;;;5.47;3.20;;;23.60;78.40;;;;;;5110104;27;20180;-66
2021/03/31 12:24:31;;;;;;;6.53;3.73;;;23.70;77.20;;;;;;5113775;27;20377;-65
2021/03/31 12:27:05;;;;;;;4.83;3.20;;;23.70;77.80;;;;;;5124757;27;20183;-65
2021/03/31 12:29:31;;;;;;;5.00;3.30;;;23.70;78.60;;;;;;5100331;27;21019;-65
2021/03/31 12:31:59;;;;;;;5.17;3.27;;;24.40;75.50;;;;;;5122035;27;20448;-66
2021/03/31 12:34:27;;;;;;;3.63;3.30;;;24.60;75.50;;;;;;5116724;27;20449;-66
2021/03/31 12:36:52;;;;;;;5.53;3.67;;;25.00;70.70;;;;;;5130192;27;20575;-65
2021/03/31 12:39:18;;;;;;;6.40;3.40;;;25.00;69.70;;;;;;5101153;27;20448;-65
2021/03/31 12:41:44;;;;;;;6.53;4.20;;;25.10;69.70;;;;;;5123773;27;20188;-66
2021/03/31 12:44:09;;;;;;;5.30;3.20;;;25.20;73.70;;;;;;5105799;27;20204;-67
2021/03/31 12:46:35;;;;;;;4.23;2.50;;;25.00;74.00;;;;;;5108161;27;20244;-66
2021/03/31 12:49:01;;;;;;;3.50;2.93;;;25.50;69.80;;;;;;5116510;27;20605;-65
2021/03/31 12:51:35;;;;;;;3.33;2.93;;;25.80;69.00;;;;;;5106988;28;20535;-65
2021/03/31 12:54:14;;;;;;;5.10;3.70;;;26.10;69.30;;;;;;5115886;27;20197;-65
2021/03/31 12:56:41;;;;;;;3.67;3.33;;;26.20;67.30;;;;;;5118425;27;20835;-66
2021/03/31 12:59:07;;;;;;;4.97;3.10;;;26.00;70.60;;;;;;5108323;27;20470;-68
2021/03/31 13:01:33;;;;;;;3.60;3.00;;;25.50;71.90;;;;;;5118121;27;20931;-64
2021/03/31 13:03:58;;;;;;;5.53;4.17;;;24.50;73.80;;;;;;5125929;27;20442;-65
2021/03/31 13:06:28;;;;;;;3.87;3.40;;;24.10;75.80;;;;;;5125558;27;20184;-65
2021/03/31 13:08:55;;;;;;;5.30;2.80;;;24.70;74.20;;;;;;5109724;27;20269;-66
2021/03/31 13:11:22;;;;;;;3.40;3.10;;;25.40;69.20;;;;;;5111671;27;20907;-67
2021/03/31 13:22:14;;;;;;;3.67;3.20;;;24.30;73.20;;;;;;5119026;27;20434;-66
2021/03/31 13:24:51;;;;;;;3.30;2.60;;;24.60;69.10;;;;;;5107594;28;20982;-67
2021/03/31 13:27:36;;;;;;;4.10;3.47;;;24.70;69.20;;;;;;5112822;27;20429;-65